Airfield :
LOGIN :

Register | Disclaimer

   EN    FR    IT 

 










Legend :    VFR   Marginal VFR   IFR   Intensive IFR   Very Intensive IFR
Visi :
Ceiling :
>= 8 km
>= 3000ft
5 to 8 km
1000 to 3000 ft
1500m to 5 km
500 to 1000 ft
800 to 1500m
200 to 500 ft
< 800m
< 200 ft
Symbols :   Thunderstorms  Fog  Heavy snow  Heavy precipitations  Wind > 20 kt
SIGMETs :     Misc.  Thunderstorms  Icing  Turbulence  Mountain Waves  Volcanic Ashes







- Airport Elevation : 400 ft
- IATA code : BNX


LQBK - Banja Luka

CURRENT METAR :
  • 170900Z VRB02KT CAVOK 16/12 Q1027 NOSIG

EXPIRED METARs :
  • 170830Z VRB02KT 8000 NSC 15/12 Q1027 NOSIG
  • 170800Z VRB02KT 7000 NSC 14/12 Q1027 NOSIG
  • 170730Z 00000KT 5000 BR FEW001 11/11 Q1027 BECMG CAVOK
  • 170700Z 00000KT 4500 2000N R17/1400U BR FEW001 10/10 Q1027 BECMG 6000 NSW

TAF COR TAF LQBK
Valid from the 17 at 06:00 until the 18 at 06:00 UTC


170500Z 1706/1806 VRB02KT CAVOK TX24/1714Z TN08/1804Z
TEMPO 1706/1707 1200 BCFG
PROB30
TEMPO 1803/1806 3000 BR
No reported NOTAMs for that airfield.



MET'MAP, your aeronautical weather chart ! - Copyright ORBIFLY December 2007 - Disclaimer

ORBIFLY MET'MAP TEAM :

Programming & Development : Alexandra Zaïnal
Concept & Development : Baudouin d'Aumeries
Co-Development & Prog : Marc-Olivier Méhu
Technical & hardware support : Manuel Goepfert

Contact : metmap@orbifly.com




SOURCES & CREDITS :

   NOAA